Gulfport Biloxi International Airport
KGPT : now visible

Airfield :











YOU CAN JOIN US ON...

 
LOGIN :

Register | Disclaimer

   EN    FR    IT 

 









Legend :    VFR   Marginal VFR   IFR   Intensive IFR   Very Intensive IFR
Visi :
Ceiling :
>= 8 km
>= 3000ft
5 to 8 km
1000 to 3000 ft
1500m to 5 km
500 to 1000 ft
800 to 1500m
200 to 500 ft
< 800m
< 200 ft
Symbols :   Thunderstorms  Fog  Heavy snow  Heavy precipitations  Wind > 20 kt






- Airport Elevation : 28 ft
- IATA code : GPT


KGPT - Gulfport Biloxi International

CURRENT METAR :
  • 191453Z 05005KT 10SM BKN110 21/16 A3021 RMK AO2 SLP230 T02060161 51020

EXPIRED METARs :
  • 191353Z 05006KT 10SM BKN110 19/17 A3019 RMK AO2 SLP222 T01890167

TAF KGPT
Valid from the 19 at 12:00 until the 20 at 12:00 UTC


191158Z 1912/2012 02006KT P6SM VCSH SCT006 BKN035
FM191500 04005KT 2SM BR VCSH OVC003
FM191700 04005KT P6SM VCSH OVC003
FM200400 04005KT 5SM BR VCSH OVC003
FM200600 VRB04KT 4SM BR OVC003



MET'MAP, your aeronautical weather chart ! - Copyright ORBIFLY December 2007 - Disclaimer

ORBIFLY MET'MAP TEAM :

Programming & Development : Alexandra Zaïnal
Concept & original design : Baudouin d'Aumeries
Assistance for programming : Marc-Olivier Méhu
Technical & hardware support : Manuel Goepfert

Contact : metmap@orbifly.com




SOURCES & CREDITS :

   NOAA       Earth
Advisory